sensor_id;sensor_type;location;lat;lon;timestamp;P1;durP1;ratioP1;P2;durP2;ratioP2
54005;SDS011;39919;38.160;-122.260;2022-09-01T00:00:24;6.53;;;4.10;;
54005;SDS011;39919;38.160;-122.260;2022-09-01T00:02:58;9.95;;;3.95;;
54005;SDS011;39919;38.160;-122.260;2022-09-01T00:05:27;8.68;;;4.38;;
54005;SDS011;39919;38.160;-122.260;2022-09-01T00:07:56;7.15;;;4.18;;
54005;SDS011;39919;38.160;-122.260;2022-09-01T00:10:25;8.25;;;4.18;;
54005;SDS011;39919;38.160;-122.260;2022-09-01T00:12:54;4.20;;;3.47;;
54005;SDS011;39919;38.160;-122.260;2022-09-01T00:15:25;12.27;;;4.50;;
54005;SDS011;39919;38.160;-122.260;2022-09-01T00:17:54;6.30;;;4.18;;
54005;SDS011;39919;38.160;-122.260;2022-09-01T00:20:23;6.70;;;3.88;;
54005;SDS011;39919;38.160;-122.260;2022-09-01T00:22:52;10.38;;;4.45;;
54005;SDS011;39919;38.160;-122.260;2022-09-01T00:25:22;8.18;;;4.15;;
54005;SDS011;39919;38.160;-122.260;2022-09-01T00:27:51;6.30;;;3.92;;
54005;SDS011;39919;38.160;-122.260;2022-09-01T00:30:28;6.57;;;3.72;;
54005;SDS011;39919;38.160;-122.260;2022-09-01T00:33:02;6.78;;;4.07;;
54005;SDS011;39919;38.160;-122.260;2022-09-01T00:35:31;10.52;;;4.32;;
54005;SDS011;39919;38.160;-122.260;2022-09-01T00:38:00;8.07;;;3.55;;
54005;SDS011;39919;38.160;-122.260;2022-09-01T00:40:32;7.50;;;4.25;;
54005;SDS011;39919;38.160;-122.260;2022-09-01T00:43:10;6.50;;;3.85;;
54005;SDS011;39919;38.160;-122.260;2022-09-01T00:45:44;9.93;;;4.25;;
54005;SDS011;39919;38.160;-122.260;2022-09-01T00:48:17;9.18;;;4.22;;
54005;SDS011;39919;38.160;-122.260;2022-09-01T00:51:05;6.60;;;3.58;;
54005;SDS011;39919;38.160;-122.260;2022-09-01T00:53:43;7.65;;;3.53;;
54005;SDS011;39919;38.160;-122.260;2022-09-01T00:56:18;14.43;;;4.57;;
54005;SDS011;39919;38.160;-122.260;2022-09-01T00:58:47;7.40;;;4.10;;
54005;SDS011;39919;38.160;-122.260;2022-09-01T01:01:18;5.53;;;3.85;;
54005;SDS011;39919;38.160;-122.260;2022-09-01T01:03:48;5.53;;;3.85;;
54005;SDS011;39919;38.160;-122.260;2022-09-01T01:06:19;9.80;;;4.22;;
54005;SDS011;39919;38.160;-122.260;2022-09-01T01:08:52;8.10;;;3.67;;
54005;SDS011;39919;38.160;-122.260;2022-09-01T01:11:26;10.38;;;4.55;;
54005;SDS011;39919;38.160;-122.260;2022-09-01T01:14:00;5.75;;;3.95;;
54005;SDS011;39919;38.160;-122.260;2022-09-01T01:16:43;9.18;;;4.22;;
54005;SDS011;39919;38.160;-122.260;2022-09-01T01:19:19;7.05;;;3.40;;
54005;SDS011;39919;38.160;-122.260;2022-09-01T01:22:18;8.70;;;4.22;;
54005;SDS011;39919;38.160;-122.260;2022-09-01T01:25:16;8.45;;;4.22;;
54005;SDS011;39919;38.160;-122.260;2022-09-01T01:27:49;4.47;;;4.00;;
54005;SDS011;39919;38.160;-122.260;2022-09-01T01:30:21;7.80;;;3.70;;
54005;SDS011;39919;38.160;-122.260;2022-09-01T01:33:00;6.55;;;3.28;;
54005;SDS011;39919;38.160;-122.260;2022-09-01T01:35:34;6.35;;;4.07;;
54005;SDS011;39919;38.160;-122.260;2022-09-01T01:38:06;7.77;;;3.90;;
54005;SDS011;39919;38.160;-122.260;2022-09-01T01:40:43;6.30;;;3.70;;
54005;SDS011;39919;38.160;-122.260;2022-09-01T01:43:25;9.52;;;3.75;;
54005;SDS011;39919;38.160;-122.260;2022-09-01T01:48:39;5.90;;;3.70;;
54005;SDS011;39919;38.160;-122.260;2022-09-01T01:51:09;6.95;;;3.78;;
54005;SDS011;39919;38.160;-122.260;2022-09-01T01:53:57;10.07;;;4.05;;
54005;SDS011;39919;38.160;-122.260;2022-09-01T01:56:32;5.50;;;3.40;;
54005;SDS011;39919;38.160;-122.260;2022-09-01T01:59:06;5.70;;;3.65;;
54005;SDS011;39919;38.160;-122.260;2022-09-01T02:01:39;6.25;;;3.58;;
54005;SDS011;39919;38.160;-122.260;2022-09-01T02:04:15;7.65;;;4.32;;
54005;SDS011;39919;38.160;-122.260;2022-09-01T02:06:49;10.50;;;4.13;;
54005;SDS011;39919;38.160;-122.260;2022-09-01T02:09:20;10.65;;;3.97;;
54005;SDS011;39919;38.160;-122.260;2022-09-01T02:11:53;7.68;;;4.07;;
54005;SDS011;39919;38.160;-122.260;2022-09-01T02:17:10;6.30;;;3.88;;
54005;SDS011;39919;38.160;-122.260;2022-09-01T02:19:39;6.13;;;3.33;;
54005;SDS011;39919;38.160;-122.260;2022-09-01T02:22:08;7.35;;;3.58;;
54005;SDS011;39919;38.160;-122.260;2022-09-01T02:24:44;8.07;;;3.28;;
54005;SDS011;39919;38.160;-122.260;2022-09-01T02:27:24;5.75;;;3.75;;
54005;SDS011;39919;38.160;-122.260;2022-09-01T02:30:03;14.38;;;4.10;;
54005;SDS011;39919;38.160;-122.260;2022-09-01T02:32:37;13.02;;;3.85;;
54005;SDS011;39919;38.160;-122.260;2022-09-01T02:35:08;9.07;;;4.35;;
54005;SDS011;39919;38.160;-122.260;2022-09-01T02:37:38;10.55;;;3.78;;
54005;SDS011;39919;38.160;-122.260;2022-09-01T02:40:13;5.95;;;3.25;;
54005;SDS011;39919;38.160;-122.260;2022-09-01T02:42:45;4.00;;;2.80;;
54005;SDS011;39919;38.160;-122.260;2022-09-01T02:45:22;14.32;;;3.08;;
54005;SDS011;39919;38.160;-122.260;2022-09-01T02:50:32;5.25;;;3.00;;
54005;SDS011;39919;38.160;-122.260;2022-09-01T02:53:07;8.55;;;3.17;;
54005;SDS011;39919;38.160;-122.260;2022-09-01T02:55:43;12.60;;;3.42;;
54005;SDS011;39919;38.160;-122.260;2022-09-01T02:58:22;8.25;;;2.70;;
54005;SDS011;39919;38.160;-122.260;2022-09-01T03:00:57;4.07;;;2.53;;
54005;SDS011;39919;38.160;-122.260;2022-09-01T03:03:27;5.60;;;2.97;;
54005;SDS011;39919;38.160;-122.260;2022-09-01T03:06:04;7.43;;;3.05;;
54005;SDS011;39919;38.160;-122.260;2022-09-01T03:08:39;4.03;;;2.40;;
54005;SDS011;39919;38.160;-122.260;2022-09-01T03:11:13;7.93;;;3.65;;
54005;SDS011;39919;38.160;-122.260;2022-09-01T03:13:45;7.53;;;2.58;;
54005;SDS011;39919;38.160;-122.260;2022-09-01T03:16:17;6.85;;;3.17;;
54005;SDS011;39919;38.160;-122.260;2022-09-01T03:18:52;7.25;;;2.88;;
54005;SDS011;39919;38.160;-122.260;2022-09-01T03:21:24;5.43;;;2.63;;
54005;SDS011;39919;38.160;-122.260;2022-09-01T03:23:58;2.75;;;2.42;;
54005;SDS011;39919;38.160;-122.260;2022-09-01T03:26:31;6.65;;;2.78;;
54005;SDS011;39919;38.160;-122.260;2022-09-01T03:29:07;5.85;;;3.33;;
54005;SDS011;39919;38.160;-122.260;2022-09-01T03:31:36;3.70;;;2.63;;
54005;SDS011;39919;38.160;-122.260;2022-09-01T03:34:15;9.73;;;2.60;;
54005;SDS011;39919;38.160;-122.260;2022-09-01T03:36:51;4.93;;;3.10;;
54005;SDS011;39919;38.160;-122.260;2022-09-01T03:39:21;5.88;;;3.25;;
54005;SDS011;39919;38.160;-122.260;2022-09-01T03:41:51;4.68;;;3.20;;
54005;SDS011;39919;38.160;-122.260;2022-09-01T03:44:26;7.28;;;3.50;;
54005;SDS011;39919;38.160;-122.260;2022-09-01T03:46:58;7.70;;;3.65;;
54005;SDS011;39919;38.160;-122.260;2022-09-01T03:49:32;4.55;;;2.47;;
54005;SDS011;39919;38.160;-122.260;2022-09-01T03:52:05;5.43;;;2.85;;
54005;SDS011;39919;38.160;-122.260;2022-09-01T03:54:35;9.57;;;3.53;;
54005;SDS011;39919;38.160;-122.260;2022-09-01T03:57:08;5.50;;;3.22;;
54005;SDS011;39919;38.160;-122.260;2022-09-01T04:02:12;6.68;;;3.45;;
54005;SDS011;39919;38.160;-122.260;2022-09-01T04:04:41;4.53;;;3.35;;
54005;SDS011;39919;38.160;-122.260;2022-09-01T04:07:11;8.18;;;3.35;;
54005;SDS011;39919;38.160;-122.260;2022-09-01T04:09:46;5.40;;;3.58;;
54005;SDS011;39919;38.160;-122.260;2022-09-01T04:12:24;8.80;;;3.13;;
54005;SDS011;39919;38.160;-122.260;2022-09-01T04:14:56;8.88;;;3.63;;
54005;SDS011;39919;38.160;-122.260;2022-09-01T04:17:30;5.60;;;3.25;;
54005;SDS011;39919;38.160;-122.260;2022-09-01T04:20:20;7.35;;;3.42;;
54005;SDS011;39919;38.160;-122.260;2022-09-01T04:22:52;5.28;;;3.30;;
54005;SDS011;39919;38.160;-122.260;2022-09-01T04:25:23;6.88;;;3.70;;
54005;SDS011;39919;38.160;-122.260;2022-09-01T04:27:55;6.93;;;2.90;;
54005;SDS011;39919;38.160;-122.260;2022-09-01T04:30:24;5.25;;;3.17;;
54005;SDS011;39919;38.160;-122.260;2022-09-01T04:33:09;3.47;;;2.70;;
54005;SDS011;39919;38.160;-122.260;2022-09-01T04:35:44;7.10;;;3.17;;
54005;SDS011;39919;38.160;-122.260;2022-09-01T04:38:24;5.93;;;2.92;;
54005;SDS011;39919;38.160;-122.260;2022-09-01T04:40:57;3.30;;;2.35;;
54005;SDS011;39919;38.160;-122.260;2022-09-01T04:43:31;4.45;;;2.97;;
54005;SDS011;39919;38.160;-122.260;2022-09-01T04:46:02;6.18;;;3.38;;
54005;SDS011;39919;38.160;-122.260;2022-09-01T04:48:33;5.43;;;2.78;;
54005;SDS011;39919;38.160;-122.260;2022-09-01T04:51:06;4.32;;;3.00;;
54005;SDS011;39919;38.160;-122.260;2022-09-01T04:53:45;5.10;;;2.78;;
54005;SDS011;39919;38.160;-122.260;2022-09-01T04:56:18;3.10;;;1.95;;
54005;SDS011;39919;38.160;-122.260;2022-09-01T04:58:51;4.07;;;3.10;;
54005;SDS011;39919;38.160;-122.260;2022-09-01T05:01:22;7.10;;;3.95;;
54005;SDS011;39919;38.160;-122.260;2022-09-01T05:03:57;5.65;;;3.17;;
54005;SDS011;39919;38.160;-122.260;2022-09-01T05:06:29;5.43;;;2.67;;
54005;SDS011;39919;38.160;-122.260;2022-09-01T05:08:58;4.47;;;2.22;;
54005;SDS011;39919;38.160;-122.260;2022-09-01T05:11:30;5.82;;;2.60;;
54005;SDS011;39919;38.160;-122.260;2022-09-01T05:14:02;2.28;;;1.55;;
54005;SDS011;39919;38.160;-122.260;2022-09-01T05:16:31;2.30;;;1.52;;
54005;SDS011;39919;38.160;-122.260;2022-09-01T05:19:07;2.42;;;1.88;;
54005;SDS011;39919;38.160;-122.260;2022-09-01T05:21:42;1.55;;;1.13;;
54005;SDS011;39919;38.160;-122.260;2022-09-01T05:24:16;4.95;;;2.72;;
54005;SDS011;39919;38.160;-122.260;2022-09-01T05:26:51;6.10;;;2.97;;
54005;SDS011;39919;38.160;-122.260;2022-09-01T05:29:22;6.78;;;3.30;;
54005;SDS011;39919;38.160;-122.260;2022-09-01T05:31:55;5.57;;;2.95;;
54005;SDS011;39919;38.160;-122.260;2022-09-01T05:34:35;4.63;;;3.15;;
54005;SDS011;39919;38.160;-122.260;2022-09-01T05:37:09;5.78;;;3.13;;
54005;SDS011;39919;38.160;-122.260;2022-09-01T05:39:41;6.00;;;3.17;;
54005;SDS011;39919;38.160;-122.260;2022-09-01T05:42:11;4.80;;;2.90;;
54005;SDS011;39919;38.160;-122.260;2022-09-01T05:44:43;9.98;;;3.72;;
54005;SDS011;39919;38.160;-122.260;2022-09-01T05:47:12;6.82;;;2.95;;
54005;SDS011;39919;38.160;-122.260;2022-09-01T05:49:43;7.05;;;3.33;;
54005;SDS011;39919;38.160;-122.260;2022-09-01T05:52:15;5.20;;;3.10;;
54005;SDS011;39919;38.160;-122.260;2022-09-01T05:54:51;14.32;;;3.65;;
54005;SDS011;39919;38.160;-122.260;2022-09-01T05:57:27;6.90;;;3.33;;
54005;SDS011;39919;38.160;-122.260;2022-09-01T06:00:00;4.95;;;3.33;;
54005;SDS011;39919;38.160;-122.260;2022-09-01T06:02:35;8.10;;;3.17;;
54005;SDS011;39919;38.160;-122.260;2022-09-01T06:05:07;5.43;;;2.97;;
54005;SDS011;39919;38.160;-122.260;2022-09-01T06:07:37;6.43;;;3.33;;
54005;SDS011;39919;38.160;-122.260;2022-09-01T06:10:07;5.45;;;3.10;;
54005;SDS011;39919;38.160;-122.260;2022-09-01T06:12:41;7.30;;;3.30;;
54005;SDS011;39919;38.160;-122.260;2022-09-01T06:15:15;7.57;;;2.42;;
54005;SDS011;39919;38.160;-122.260;2022-09-01T06:17:48;4.82;;;3.08;;
54005;SDS011;39919;38.160;-122.260;2022-09-01T06:20:22;4.35;;;2.72;;
54005;SDS011;39919;38.160;-122.260;2022-09-01T06:22:54;4.65;;;2.92;;
54005;SDS011;39919;38.160;-122.260;2022-09-01T06:25:27;6.40;;;2.70;;
54005;SDS011;39919;38.160;-122.260;2022-09-01T06:27:56;3.67;;;2.00;;
54005;SDS011;39919;38.160;-122.260;2022-09-01T06:30:25;3.72;;;2.15;;
54005;SDS011;39919;38.160;-122.260;2022-09-01T06:33:01;3.75;;;1.83;;
54005;SDS011;39919;38.160;-122.260;2022-09-01T06:35:37;5.50;;;2.58;;
54005;SDS011;39919;38.160;-122.260;2022-09-01T06:38:07;8.15;;;4.30;;
54005;SDS011;39919;38.160;-122.260;2022-09-01T06:40:41;5.00;;;2.85;;
54005;SDS011;39919;38.160;-122.260;2022-09-01T06:43:12;5.90;;;3.15;;
54005;SDS011;39919;38.160;-122.260;2022-09-01T06:45:44;5.70;;;3.10;;
54005;SDS011;39919;38.160;-122.260;2022-09-01T06:48:23;6.15;;;2.72;;
54005;SDS011;39919;38.160;-122.260;2022-09-01T06:51:02;6.70;;;3.20;;
54005;SDS011;39919;38.160;-122.260;2022-09-01T06:53:39;4.80;;;2.50;;
54005;SDS011;39919;38.160;-122.260;2022-09-01T06:56:21;4.28;;;2.38;;
54005;SDS011;39919;38.160;-122.260;2022-09-01T06:59:02;5.72;;;2.40;;
54005;SDS011;39919;38.160;-122.260;2022-09-01T07:01:32;8.90;;;4.03;;
54005;SDS011;39919;38.160;-122.260;2022-09-01T07:04:04;4.43;;;2.35;;
54005;SDS011;39919;38.160;-122.260;2022-09-01T07:06:36;7.78;;;3.40;;
54005;SDS011;39919;38.160;-122.260;2022-09-01T07:09:17;8.75;;;3.53;;
54005;SDS011;39919;38.160;-122.260;2022-09-01T07:11:50;11.90;;;3.80;;
54005;SDS011;39919;38.160;-122.260;2022-09-01T07:14:21;9.15;;;4.40;;
54005;SDS011;39919;38.160;-122.260;2022-09-01T07:16:51;7.93;;;3.55;;
54005;SDS011;39919;38.160;-122.260;2022-09-01T07:19:22;8.65;;;3.50;;
54005;SDS011;39919;38.160;-122.260;2022-09-01T07:21:54;10.15;;;4.20;;
54005;SDS011;39919;38.160;-122.260;2022-09-01T07:24:22;4.47;;;2.60;;
54005;SDS011;39919;38.160;-122.260;2022-09-01T07:26:54;3.90;;;2.58;;
54005;SDS011;39919;38.160;-122.260;2022-09-01T07:29:23;4.72;;;2.55;;
54005;SDS011;39919;38.160;-122.260;2022-09-01T07:31:55;7.82;;;3.38;;
54005;SDS011;39919;38.160;-122.260;2022-09-01T07:34:24;7.50;;;2.50;;
54005;SDS011;39919;38.160;-122.260;2022-09-01T07:36:57;9.63;;;4.03;;
54005;SDS011;39919;38.160;-122.260;2022-09-01T07:39:26;8.85;;;4.05;;
54005;SDS011;39919;38.160;-122.260;2022-09-01T07:42:02;8.45;;;3.38;;
54005;SDS011;39919;38.160;-122.260;2022-09-01T07:44:36;8.00;;;2.83;;
54005;SDS011;39919;38.160;-122.260;2022-09-01T07:47:05;4.78;;;2.92;;
54005;SDS011;39919;38.160;-122.260;2022-09-01T07:49:40;6.07;;;2.58;;
54005;SDS011;39919;38.160;-122.260;2022-09-01T07:52:15;3.42;;;1.92;;
54005;SDS011;39919;38.160;-122.260;2022-09-01T07:54:47;3.42;;;1.90;;
54005;SDS011;39919;38.160;-122.260;2022-09-01T07:57:16;4.22;;;2.20;;
54005;SDS011;39919;38.160;-122.260;2022-09-01T07:59:47;2.45;;;1.90;;
54005;SDS011;39919;38.160;-122.260;2022-09-01T08:02:20;6.30;;;2.72;;
54005;SDS011;39919;38.160;-122.260;2022-09-01T08:05:07;5.03;;;2.35;;
54005;SDS011;39919;38.160;-122.260;2022-09-01T08:07:38;7.70;;;2.80;;
54005;SDS011;39919;38.160;-122.260;2022-09-01T08:10:14;6.10;;;3.10;;
54005;SDS011;39919;38.160;-122.260;2022-09-01T08:12:49;6.25;;;3.60;;
54005;SDS011;39919;38.160;-122.260;2022-09-01T08:15:21;7.47;;;3.63;;
54005;SDS011;39919;38.160;-122.260;2022-09-01T08:17:56;9.48;;;3.63;;
54005;SDS011;39919;38.160;-122.260;2022-09-01T08:20:26;8.48;;;3.90;;
54005;SDS011;39919;38.160;-122.260;2022-09-01T08:23:02;7.88;;;2.88;;
54005;SDS011;39919;38.160;-122.260;2022-09-01T08:25:32;10.30;;;3.92;;
54005;SDS011;39919;38.160;-122.260;2022-09-01T08:28:03;4.20;;;2.67;;
54005;SDS011;39919;38.160;-122.260;2022-09-01T08:30:37;7.03;;;3.55;;
54005;SDS011;39919;38.160;-122.260;2022-09-01T08:33:07;9.10;;;3.83;;
54005;SDS011;39919;38.160;-122.260;2022-09-01T08:35:37;3.88;;;2.60;;
54005;SDS011;39919;38.160;-122.260;2022-09-01T08:38:08;4.78;;;2.80;;
54005;SDS011;39919;38.160;-122.260;2022-09-01T08:40:38;14.75;;;3.58;;
54005;SDS011;39919;38.160;-122.260;2022-09-01T08:43:13;9.15;;;2.80;;
54005;SDS011;39919;38.160;-122.260;2022-09-01T08:45:48;3.25;;;2.08;;
54005;SDS011;39919;38.160;-122.260;2022-09-01T08:48:26;6.85;;;3.45;;
54005;SDS011;39919;38.160;-122.260;2022-09-01T08:51:04;3.85;;;2.35;;
54005;SDS011;39919;38.160;-122.260;2022-09-01T08:53:51;10.20;;;2.88;;
54005;SDS011;39919;38.160;-122.260;2022-09-01T08:56:28;4.80;;;2.20;;
54005;SDS011;39919;38.160;-122.260;2022-09-01T08:59:03;4.95;;;2.22;;
54005;SDS011;39919;38.160;-122.260;2022-09-01T09:01:38;4.18;;;3.40;;
54005;SDS011;39919;38.160;-122.260;2022-09-01T09:04:17;8.52;;;4.10;;
54005;SDS011;39919;38.160;-122.260;2022-09-01T09:06:58;6.72;;;3.47;;
54005;SDS011;39919;38.160;-122.260;2022-09-01T09:09:41;7.57;;;3.90;;
54005;SDS011;39919;38.160;-122.260;2022-09-01T09:12:23;4.32;;;2.47;;
54005;SDS011;39919;38.160;-122.260;2022-09-01T09:15:05;11.38;;;4.80;;
54005;SDS011;39919;38.160;-122.260;2022-09-01T09:17:43;5.18;;;2.33;;
54005;SDS011;39919;38.160;-122.260;2022-09-01T09:20:17;4.38;;;2.10;;
54005;SDS011;39919;38.160;-122.260;2022-09-01T09:22:51;4.72;;;1.50;;
54005;SDS011;39919;38.160;-122.260;2022-09-01T09:25:30;2.70;;;1.48;;
54005;SDS011;39919;38.160;-122.260;2022-09-01T09:27:59;3.15;;;1.80;;
54005;SDS011;39919;38.160;-122.260;2022-09-01T09:30:31;4.00;;;1.70;;
54005;SDS011;39919;38.160;-122.260;2022-09-01T09:33:02;5.43;;;3.08;;
54005;SDS011;39919;38.160;-122.260;2022-09-01T09:35:40;6.13;;;2.65;;
54005;SDS011;39919;38.160;-122.260;2022-09-01T09:38:17;14.30;;;3.50;;
54005;SDS011;39919;38.160;-122.260;2022-09-01T09:40:59;4.13;;;1.92;;
54005;SDS011;39919;38.160;-122.260;2022-09-01T09:43:29;5.25;;;1.52;;
54005;SDS011;39919;38.160;-122.260;2022-09-01T09:46:19;3.65;;;1.42;;
54005;SDS011;39919;38.160;-122.260;2022-09-01T09:49:07;2.42;;;2.00;;
54005;SDS011;39919;38.160;-122.260;2022-09-01T09:51:39;1.80;;;1.20;;
54005;SDS011;39919;38.160;-122.260;2022-09-01T09:54:10;4.00;;;2.03;;
54005;SDS011;39919;38.160;-122.260;2022-09-01T09:57:03;3.05;;;1.40;;
54005;SDS011;39919;38.160;-122.260;2022-09-01T09:59:43;4.05;;;1.50;;
54005;SDS011;39919;38.160;-122.260;2022-09-01T10:02:25;6.95;;;3.38;;
54005;SDS011;39919;38.160;-122.260;2022-09-01T10:07:52;4.72;;;2.90;;
54005;SDS011;39919;38.160;-122.260;2022-09-01T10:10:25;12.57;;;3.80;;
54005;SDS011;39919;38.160;-122.260;2022-09-01T10:12:59;7.38;;;3.28;;
54005;SDS011;39919;38.160;-122.260;2022-09-01T10:15:29;6.50;;;3.13;;
54005;SDS011;39919;38.160;-122.260;2022-09-01T10:18:01;8.00;;;3.42;;
54005;SDS011;39919;38.160;-122.260;2022-09-01T10:20:48;9.63;;;4.55;;
54005;SDS011;39919;38.160;-122.260;2022-09-01T10:23:24;5.70;;;2.22;;
54005;SDS011;39919;38.160;-122.260;2022-09-01T10:25:55;9.98;;;4.05;;
54005;SDS011;39919;38.160;-122.260;2022-09-01T10:28:34;5.80;;;3.97;;
54005;SDS011;39919;38.160;-122.260;2022-09-01T10:31:08;5.53;;;3.00;;
54005;SDS011;39919;38.160;-122.260;2022-09-01T10:33:40;9.43;;;3.40;;
54005;SDS011;39919;38.160;-122.260;2022-09-01T10:36:13;6.50;;;3.70;;
54005;SDS011;39919;38.160;-122.260;2022-09-01T10:38:43;5.93;;;2.38;;
54005;SDS011;39919;38.160;-122.260;2022-09-01T10:44:28;7.53;;;2.55;;
54005;SDS011;39919;38.160;-122.260;2022-09-01T10:47:00;8.77;;;3.45;;
54005;SDS011;39919;38.160;-122.260;2022-09-01T10:55:22;5.15;;;3.22;;
54005;SDS011;39919;38.160;-122.260;2022-09-01T11:01:11;7.32;;;3.30;;
54005;SDS011;39919;38.160;-122.260;2022-09-01T11:09:29;6.53;;;3.15;;
54005;SDS011;39919;38.160;-122.260;2022-09-01T11:12:25;4.95;;;2.80;;
54005;SDS011;39919;38.160;-122.260;2022-09-01T11:18:13;10.05;;;4.15;;
54005;SDS011;39919;38.160;-122.260;2022-09-01T11:20:47;7.00;;;2.42;;
54005;SDS011;39919;38.160;-122.260;2022-09-01T11:23:20;7.47;;;3.50;;
54005;SDS011;39919;38.160;-122.260;2022-09-01T11:25:51;4.35;;;2.28;;
54005;SDS011;39919;38.160;-122.260;2022-09-01T11:31:19;12.43;;;3.60;;
54005;SDS011;39919;38.160;-122.260;2022-09-01T11:34:08;6.18;;;3.28;;
54005;SDS011;39919;38.160;-122.260;2022-09-01T11:39:39;10.02;;;4.20;;
54005;SDS011;39919;38.160;-122.260;2022-09-01T11:42:15;9.40;;;4.70;;
54005;SDS011;39919;38.160;-122.260;2022-09-01T11:44:53;7.55;;;2.83;;
54005;SDS011;39919;38.160;-122.260;2022-09-01T11:47:25;4.35;;;2.38;;
54005;SDS011;39919;38.160;-122.260;2022-09-01T11:49:58;10.10;;;4.72;;
54005;SDS011;39919;38.160;-122.260;2022-09-01T11:52:30;12.52;;;4.90;;
54005;SDS011;39919;38.160;-122.260;2022-09-01T11:55:04;7.90;;;3.83;;
54005;SDS011;39919;38.160;-122.260;2022-09-01T11:57:36;8.13;;;4.28;;
54005;SDS011;39919;38.160;-122.260;2022-09-01T12:00:15;7.90;;;3.90;;
54005;SDS011;39919;38.160;-122.260;2022-09-01T12:03:03;3.92;;;2.25;;
54005;SDS011;39919;38.160;-122.260;2022-09-01T12:05:46;6.15;;;3.15;;
54005;SDS011;39919;38.160;-122.260;2022-09-01T12:08:25;7.18;;;3.75;;
54005;SDS011;39919;38.160;-122.260;2022-09-01T12:11:01;6.85;;;2.97;;
54005;SDS011;39919;38.160;-122.260;2022-09-01T12:13:32;13.60;;;5.22;;
54005;SDS011;39919;38.160;-122.260;2022-09-01T12:16:04;9.50;;;4.03;;
54005;SDS011;39919;38.160;-122.260;2022-09-01T12:18:43;7.45;;;4.10;;
54005;SDS011;39919;38.160;-122.260;2022-09-01T12:24:09;5.45;;;3.47;;
54005;SDS011;39919;38.160;-122.260;2022-09-01T12:26:53;9.38;;;4.25;;
54005;SDS011;39919;38.160;-122.260;2022-09-01T12:29:26;7.13;;;3.95;;
54005;SDS011;39919;38.160;-122.260;2022-09-01T12:31:58;9.77;;;3.80;;
54005;SDS011;39919;38.160;-122.260;2022-09-01T12:34:35;8.18;;;3.97;;
54005;SDS011;39919;38.160;-122.260;2022-09-01T12:39:37;10.10;;;4.22;;
54005;SDS011;39919;38.160;-122.260;2022-09-01T12:42:08;13.00;;;4.25;;
54005;SDS011;39919;38.160;-122.260;2022-09-01T12:44:43;13.23;;;4.30;;
54005;SDS011;39919;38.160;-122.260;2022-09-01T12:56:15;13.55;;;4.60;;
54005;SDS011;39919;38.160;-122.260;2022-09-01T12:59:04;8.45;;;3.90;;
54005;SDS011;39919;38.160;-122.260;2022-09-01T13:04:22;5.93;;;3.20;;
54005;SDS011;39919;38.160;-122.260;2022-09-01T13:07:01;8.60;;;3.30;;
54005;SDS011;39919;38.160;-122.260;2022-09-01T13:09:34;7.75;;;4.15;;
54005;SDS011;39919;38.160;-122.260;2022-09-01T13:12:15;10.57;;;3.85;;
54005;SDS011;39919;38.160;-122.260;2022-09-01T13:14:53;5.28;;;2.78;;
54005;SDS011;39919;38.160;-122.260;2022-09-01T13:17:25;6.95;;;2.72;;
54005;SDS011;39919;38.160;-122.260;2022-09-01T13:20:01;7.88;;;3.55;;
54005;SDS011;39919;38.160;-122.260;2022-09-01T13:22:33;6.10;;;2.45;;
54005;SDS011;39919;38.160;-122.260;2022-09-01T13:25:03;8.18;;;3.40;;
54005;SDS011;39919;38.160;-122.260;2022-09-01T13:27:34;7.15;;;3.58;;
54005;SDS011;39919;38.160;-122.260;2022-09-01T13:30:08;8.13;;;3.78;;
54005;SDS011;39919;38.160;-122.260;2022-09-01T13:32:41;9.85;;;4.43;;
54005;SDS011;39919;38.160;-122.260;2022-09-01T13:35:15;10.65;;;4.60;;
54005;SDS011;39919;38.160;-122.260;2022-09-01T13:37:50;6.47;;;2.80;;
54005;SDS011;39919;38.160;-122.260;2022-09-01T13:40:20;12.98;;;5.00;;
54005;SDS011;39919;38.160;-122.260;2022-09-01T13:42:50;8.52;;;3.50;;
54005;SDS011;39919;38.160;-122.260;2022-09-01T13:45:20;4.60;;;2.83;;
54005;SDS011;39919;38.160;-122.260;2022-09-01T13:47:51;4.93;;;2.58;;
54005;SDS011;39919;38.160;-122.260;2022-09-01T13:50:24;5.72;;;2.55;;
54005;SDS011;39919;38.160;-122.260;2022-09-01T13:52:56;11.35;;;4.28;;
54005;SDS011;39919;38.160;-122.260;2022-09-01T13:55:26;9.68;;;4.55;;
54005;SDS011;39919;38.160;-122.260;2022-09-01T13:57:58;7.63;;;4.60;;
54005;SDS011;39919;38.160;-122.260;2022-09-01T14:00:28;14.50;;;4.55;;
54005;SDS011;39919;38.160;-122.260;2022-09-01T14:02:59;7.97;;;3.75;;
54005;SDS011;39919;38.160;-122.260;2022-09-01T14:05:37;7.35;;;3.55;;
54005;SDS011;39919;38.160;-122.260;2022-09-01T14:08:09;10.93;;;4.10;;
54005;SDS011;39919;38.160;-122.260;2022-09-01T14:10:41;11.18;;;3.92;;
54005;SDS011;39919;38.160;-122.260;2022-09-01T14:13:13;8.70;;;4.38;;
54005;SDS011;39919;38.160;-122.260;2022-09-01T14:15:43;7.97;;;4.13;;
54005;SDS011;39919;38.160;-122.260;2022-09-01T14:18:14;10.80;;;4.40;;
54005;SDS011;39919;38.160;-122.260;2022-09-01T14:20:49;11.63;;;4.40;;
54005;SDS011;39919;38.160;-122.260;2022-09-01T14:23:21;8.40;;;4.38;;
54005;SDS011;39919;38.160;-122.260;2022-09-01T14:25:52;10.07;;;4.53;;
54005;SDS011;39919;38.160;-122.260;2022-09-01T14:28:24;11.73;;;5.20;;
54005;SDS011;39919;38.160;-122.260;2022-09-01T14:30:53;11.57;;;5.20;;
54005;SDS011;39919;38.160;-122.260;2022-09-01T14:33:22;10.63;;;5.20;;
54005;SDS011;39919;38.160;-122.260;2022-09-01T14:35:59;13.30;;;4.65;;
54005;SDS011;39919;38.160;-122.260;2022-09-01T14:38:28;19.55;;;6.57;;
54005;SDS011;39919;38.160;-122.260;2022-09-01T14:40:58;12.15;;;6.18;;
54005;SDS011;39919;38.160;-122.260;2022-09-01T14:43:27;10.18;;;4.65;;
54005;SDS011;39919;38.160;-122.260;2022-09-01T14:46:01;6.68;;;4.82;;
54005;SDS011;39919;38.160;-122.260;2022-09-01T14:48:33;11.77;;;5.82;;
54005;SDS011;39919;38.160;-122.260;2022-09-01T14:51:07;14.82;;;7.05;;
54005;SDS011;39919;38.160;-122.260;2022-09-01T14:53:37;10.15;;;6.15;;
54005;SDS011;39919;38.160;-122.260;2022-09-01T14:56:06;16.85;;;6.57;;
54005;SDS011;39919;38.160;-122.260;2022-09-01T14:58:35;9.93;;;6.60;;
54005;SDS011;39919;38.160;-122.260;2022-09-01T15:01:05;17.70;;;6.07;;
54005;SDS011;39919;38.160;-122.260;2022-09-01T15:03:35;13.52;;;6.43;;
54005;SDS011;39919;38.160;-122.260;2022-09-01T15:06:09;8.77;;;4.75;;
54005;SDS011;39919;38.160;-122.260;2022-09-01T15:08:39;5.82;;;3.67;;
54005;SDS011;39919;38.160;-122.260;2022-09-01T15:11:10;7.82;;;5.47;;
54005;SDS011;39919;38.160;-122.260;2022-09-01T15:13:41;7.22;;;4.40;;
54005;SDS011;39919;38.160;-122.260;2022-09-01T15:16:15;9.38;;;4.15;;
54005;SDS011;39919;38.160;-122.260;2022-09-01T15:18:46;8.27;;;4.28;;
54005;SDS011;39919;38.160;-122.260;2022-09-01T15:21:20;7.55;;;4.25;;
54005;SDS011;39919;38.160;-122.260;2022-09-01T15:23:57;7.15;;;4.28;;
54005;SDS011;39919;38.160;-122.260;2022-09-01T15:26:26;9.02;;;4.13;;
54005;SDS011;39919;38.160;-122.260;2022-09-01T15:29:01;9.05;;;4.07;;
54005;SDS011;39919;38.160;-122.260;2022-09-01T15:31:31;8.48;;;3.72;;
54005;SDS011;39919;38.160;-122.260;2022-09-01T15:34:03;5.40;;;2.95;;
54005;SDS011;39919;38.160;-122.260;2022-09-01T15:36:37;5.25;;;2.70;;
54005;SDS011;39919;38.160;-122.260;2022-09-01T15:39:10;6.75;;;3.00;;
54005;SDS011;39919;38.160;-122.260;2022-09-01T15:41:42;3.67;;;2.95;;